Detall de PIREP

Printer-friendly versionPDF version

[2016/12/25 16:23:00]
Flight IATA:CT1004
Pilot Number:012
Company ICAO:CAT
Aircraft Type:B463/A
PAX:100
Aircraft Registration:PAX
Departing Airport: EGLC
Destination Airport: LEDA
Alternate Airport:LEBL
Online: VATSIM
Route:LYD UM189 DRAKE UL151 SITET UN859 BALAN UL152 MAKOX UN860 GRAUS G23 ALOSU
Flight Level:F290
No Slew and time accel
No pause
Crash detect
Detect pilot in Cockpit between each 30 and 45 minutes
16:23 Zero fuel Weight: 74950 Lbs, Fuel Weight: 20604 Lbs
16:23 VATSIM:EGLC 251550Z AUTO 24015KT 9999 BKN016 BKN022 BKN028 14/11 Q1022
16:23 VATSIM:LEDA 251600Z VRB02KT 0500 R31/0650U FG VV001 05/05 Q1032
16:23 XMAS CHARTER
16:29 Parking Brakes off
16:34 Take-off
16:34 Take off Weight: 95005 Lbs
16:34 Wind: 241º @ 015 Knots Heading: 270º
16:34 POS N51º 30´ 19´´ E000º 02´ 37´´
16:34 Flaps:2 at 147 Knots
16:34 Gear Up: 147 Knots
16:35 Flaps:1 at 155 Knots
16:35 Flaps:0 at 164 Knots
16:47 TOC
16:47 Fuel Weight: 17900 Lb
16:47 TOD
16:47 Fuel Weight: 17893 Lb
16:47 TOC
16:47 Fuel Weight: 17874 Lb
16:49 Wind:241º@079 Knots Heading: 193º Ground Speed: 358 Knots Altitude 29333 ft
17:04 Wind:235º@060 Knots Heading: 172º Ground Speed: 386 Knots Altitude 29468 ft
17:19 Wind:239º@043 Knots Heading: 171º Ground Speed: 396 Knots Altitude 29550 ft
17:34 Wind:238º@031 Knots Heading: 183º Ground Speed: 394 Knots Altitude 29583 ft
17:49 Wind:226º@010 Knots Heading: 191º Ground Speed: 404 Knots Altitude 29612 ft
17:57 TOD
17:57 Fuel Weight: 11212 Lb
18:04 Wind:226º@005 Knots Heading: 190º Ground Speed: 368 Knots Altitude 20770 ft
18:16 Flaps:1 at 209 Knots
18:19 Wind:058º@002 Knots Heading: 248º Ground Speed: 178 Knots Altitude 2798 ft
18:19 Flaps:2 at 161 Knots
18:19 Gear Down: 161 Knots
18:19 Flaps:3 at 138 Knots
18:20 Flaps:4 at 142 Knots
18:22 TouchDown:Rate -246 ft/min Speed: 121 Knots
18:22 VATSIM:LEDA 251600Z VRB02KT 0500 R31/0650U FG VV001 05/05 Q1032
18:22 Land
18:22 Wind:058º@002 Knots
18:22 Heading: 317º
18:22 Flight Duration: 01:48
18:22 Landing Weight: 84923 Lbs
18:22 POS N41º 43´ 36´´ E000º 32´ 12´´
18:24 Parking brakes on
18:24 Block to Block Duration: 01:55
18:24 Final Fuel: 9885 Lbls
18:24 Spent Fuel: 10718 Lbls
18:24 Flight Length: 632 NM
18:24 TOD Land Length: 117 NM

Exportar CSV

Powered by Drupal - Modified by Danger4k